Time;durP1;ratioP1;P1;durP2;ratioP2;P2;SDS_P1;SDS_P2;PMS_P1;PMS_P2;Temp;Humidity;BMP_temperature;BMP_pressure;BME280_temperature;BME280_humidity;BME280_pressure;Samples;Min_cycle;Max_cycle;Signal;HPM_P1;HPM_P2
2022/08/20 00:00:48;;;;;;;1.50;1.40;;;24.60;74.50;;;;;;5082765;28;20472;-69
2022/08/20 00:03:26;;;;;;;2.77;2.50;;;24.50;74.40;;;;;;5057517;28;20461;-70
2022/08/20 00:06:07;;;;;;;1.80;1.70;;;24.50;74.30;;;;;;5067993;28;20510;-69
2022/08/20 00:08:33;;;;;;;2.20;1.87;;;24.40;74.50;;;;;;5065964;28;20974;-71
2022/08/20 00:11:01;;;;;;;1.97;1.87;;;24.40;74.80;;;;;;5074656;28;20461;-70
2022/08/20 00:13:39;;;;;;;1.90;1.80;;;24.40;75.00;;;;;;5068315;28;20531;-70
2022/08/20 00:16:06;;;;;;;1.80;1.70;;;24.40;74.70;;;;;;5069726;28;21120;-70
2022/08/20 00:18:32;;;;;;;1.67;1.57;;;24.40;75.00;;;;;;5068369;28;20458;-70
2022/08/20 00:20:59;;;;;;;2.20;1.93;;;24.40;75.00;;;;;;5051747;28;20460;-70
2022/08/20 00:23:26;;;;;;;2.50;2.30;;;24.40;74.90;;;;;;5065339;28;20226;-70
2022/08/20 00:25:52;;;;;;;1.87;1.77;;;24.30;75.00;;;;;;5060613;28;20467;-69
2022/08/20 00:28:18;;;;;;;2.30;1.93;;;24.30;75.00;;;;;;5064099;28;20471;-70
2022/08/20 00:30:45;;;;;;;2.10;1.90;;;24.30;75.10;;;;;;5069294;28;20450;-69
2022/08/20 00:33:15;;;;;;;2.10;1.90;;;24.30;75.20;;;;;;5064248;27;20482;-69
2022/08/20 00:35:45;;;;;;;4.40;2.00;;;24.30;75.30;;;;;;5064010;27;20537;-69
2022/08/20 00:38:12;;;;;;;2.00;1.90;;;24.30;75.30;;;;;;5071055;27;20464;-69
2022/08/20 00:40:42;;;;;;;2.47;1.70;;;24.30;75.50;;;;;;5066911;28;20448;-69
2022/08/20 00:43:38;;;;;;;2.67;2.47;;;24.20;75.20;;;;;;5067069;28;20826;-69
2022/08/20 00:46:09;;;;;;;1.83;1.73;;;24.20;75.60;;;;;;5070858;28;21121;-70
2022/08/20 00:48:40;;;;;;;2.00;1.80;;;24.20;75.50;;;;;;5085076;28;20481;-69
2022/08/20 00:51:16;;;;;;;2.53;2.37;;;24.20;75.80;;;;;;5070091;27;20504;-69
2022/08/20 00:53:43;;;;;;;2.30;2.10;;;24.20;75.80;;;;;;5070465;28;20461;-70
2022/08/20 00:56:11;;;;;;;2.03;1.83;;;24.10;76.40;;;;;;5067759;28;20471;-69
2022/08/20 00:58:38;;;;;;;2.77;1.90;;;24.00;76.40;;;;;;5063245;28;20465;-69
2022/08/20 01:01:06;;;;;;;2.93;2.00;;;24.00;77.20;;;;;;5067578;27;20523;-69
2022/08/20 01:03:32;;;;;;;2.07;1.97;;;24.00;77.20;;;;;;5067170;28;20453;-70
2022/08/20 01:05:57;;;;;;;1.60;1.50;;;23.90;77.70;;;;;;5070298;28;20510;-70
2022/08/20 01:08:25;;;;;;;2.20;2.10;;;23.90;78.30;;;;;;5066162;27;20673;-70
2022/08/20 01:11:05;;;;;;;2.27;2.07;;;23.90;78.40;;;;;;5072479;28;20210;-69
2022/08/20 01:13:36;;;;;;;1.80;1.70;;;23.90;78.00;;;;;;5052971;28;20460;-70
2022/08/20 01:16:07;;;;;;;3.10;2.00;;;23.90;78.30;;;;;;5053541;28;20461;-69
2022/08/20 01:18:33;;;;;;;1.83;1.73;;;23.80;78.70;;;;;;5048483;28;20506;-70
2022/08/20 01:21:02;;;;;;;1.80;1.70;;;23.80;78.90;;;;;;5065356;28;20492;-70
2022/08/20 01:23:31;;;;;;;1.80;1.70;;;23.80;78.90;;;;;;5061960;28;20476;-70
2022/08/20 01:26:12;;;;;;;1.90;1.80;;;23.80;79.30;;;;;;5068384;28;20606;-70
2022/08/20 01:28:37;;;;;;;4.57;2.07;;;23.80;80.60;;;;;;5065896;28;20449;-70
2022/08/20 01:31:06;;;;;;;2.60;2.17;;;23.70;79.60;;;;;;5068545;28;20445;-70
2022/08/20 01:33:32;;;;;;;1.83;1.73;;;23.70;79.50;;;;;;5067926;28;20766;-70
2022/08/20 01:35:58;;;;;;;3.80;2.13;;;23.70;80.00;;;;;;5070789;28;20528;-70
2022/08/20 01:38:23;;;;;;;2.43;1.73;;;23.60;80.40;;;;;;5058428;28;20718;-70
2022/08/20 01:41:13;;;;;;;2.13;1.73;;;23.70;80.80;;;;;;5068579;28;20685;-70
2022/08/20 01:43:40;;;;;;;2.00;1.90;;;23.60;81.10;;;;;;5063953;28;20589;-70
2022/08/20 01:46:08;;;;;;;1.73;1.63;;;23.60;80.90;;;;;;5059652;28;20449;-70
2022/08/20 01:48:35;;;;;;;2.70;2.50;;;23.60;81.00;;;;;;5067730;28;20972;-69
2022/08/20 01:51:12;;;;;;;2.10;1.83;;;23.50;81.80;;;;;;5068339;28;20614;-70
2022/08/20 01:53:41;;;;;;;3.87;2.17;;;23.50;83.30;;;;;;5066652;28;20993;-70
2022/08/20 01:56:10;;;;;;;2.53;2.20;;;23.50;82.80;;;;;;5072356;27;20655;-70
2022/08/20 01:58:39;;;;;;;2.40;2.20;;;23.50;82.50;;;;;;5056081;28;20496;-70
2022/08/20 02:01:05;;;;;;;2.17;1.80;;;23.50;82.70;;;;;;5085330;28;20486;-70
2022/08/20 02:03:31;;;;;;;1.93;1.83;;;23.50;82.70;;;;;;5071045;28;20484;-70
2022/08/20 02:06:00;;;;;;;2.03;1.93;;;23.50;83.10;;;;;;5065508;28;20225;-70
2022/08/20 02:08:27;;;;;;;2.20;2.00;;;23.50;83.30;;;;;;5071365;28;20242;-70
2022/08/20 02:10:54;;;;;;;1.90;1.80;;;23.50;83.70;;;;;;5077744;28;20453;-70
2022/08/20 02:13:20;;;;;;;3.10;1.90;;;23.40;84.40;;;;;;5070769;28;21022;-70
2022/08/20 02:15:46;;;;;;;1.83;1.70;;;23.40;83.80;;;;;;5070592;28;20449;-70
2022/08/20 02:18:14;;;;;;;2.40;2.20;;;23.40;84.30;;;;;;5071489;28;20526;-68
2022/08/20 02:20:42;;;;;;;2.70;2.20;;;23.40;84.80;;;;;;5080250;28;20237;-70
2022/08/20 02:23:10;;;;;;;2.30;2.10;;;23.40;85.00;;;;;;5074350;28;20546;-70
2022/08/20 02:25:38;;;;;;;4.80;4.40;;;23.40;84.50;;;;;;5046541;28;20475;-69
2022/08/20 02:28:08;;;;;;;2.37;2.17;;;23.40;84.50;;;;;;5070665;28;20459;-70
2022/08/20 02:30:38;;;;;;;1.90;1.80;;;23.40;85.00;;;;;;5071042;28;20452;-70
2022/08/20 02:33:06;;;;;;;2.33;2.13;;;23.40;85.00;;;;;;5055648;28;20462;-69
2022/08/20 02:35:33;;;;;;;2.07;1.83;;;23.40;85.60;;;;;;5056186;28;20445;-70
2022/08/20 02:37:59;;;;;;;1.90;1.70;;;23.40;85.10;;;;;;5048951;28;20457;-68
2022/08/20 02:40:27;;;;;;;2.27;2.17;;;23.40;85.40;;;;;;5070682;28;20448;-69
2022/08/20 02:42:53;;;;;;;2.00;1.90;;;23.40;85.00;;;;;;5071798;28;20453;-69
2022/08/20 02:45:21;;;;;;;1.77;1.67;;;23.40;85.20;;;;;;5077281;28;20448;-70
2022/08/20 02:47:47;;;;;;;1.80;1.70;;;23.40;85.20;;;;;;5077988;28;20441;-70
2022/08/20 02:50:16;;;;;;;1.60;1.50;;;23.40;85.70;;;;;;5066077;28;20796;-69
2022/08/20 02:52:43;;;;;;;1.90;1.80;;;23.30;85.70;;;;;;5072522;28;20223;-69
2022/08/20 02:55:10;;;;;;;1.83;1.73;;;23.30;85.90;;;;;;5066763;28;20458;-71
2022/08/20 02:57:37;;;;;;;2.37;2.17;;;23.30;86.10;;;;;;5062371;28;20442;-70
2022/08/20 03:00:10;;;;;;;1.83;1.73;;;23.30;86.20;;;;;;5068941;28;20457;-70
2022/08/20 03:02:36;;;;;;;1.87;1.77;;;23.20;86.30;;;;;;5047605;28;20460;-70
2022/08/20 03:05:03;;;;;;;1.60;1.50;;;23.20;86.10;;;;;;5070522;28;20453;-70
2022/08/20 03:07:28;;;;;;;2.03;1.80;;;23.20;86.70;;;;;;5067215;28;20226;-70
2022/08/20 03:09:54;;;;;;;2.37;2.20;;;23.10;87.00;;;;;;5059784;28;20449;-70
2022/08/20 03:12:20;;;;;;;2.50;1.97;;;23.10;87.20;;;;;;5067075;28;20225;-69
2022/08/20 03:14:46;;;;;;;2.20;2.10;;;23.10;87.00;;;;;;5046743;28;20341;-70
2022/08/20 03:17:12;;;;;;;1.80;1.70;;;23.10;87.50;;;;;;5073908;28;20207;-69
2022/08/20 03:19:38;;;;;;;1.20;1.20;;;23.10;88.10;;;;;;5074084;28;20674;-69
2022/08/20 03:22:03;;;;;;;1.90;1.53;;;23.10;87.30;;;;;;5070289;28;20536;-70
2022/08/20 03:24:29;;;;;;;1.10;1.10;;;23.10;87.70;;;;;;5069692;28;20718;-69
2022/08/20 03:26:55;;;;;;;1.40;1.30;;;23.00;88.50;;;;;;5058068;28;20221;-69
2022/08/20 03:29:20;;;;;;;1.57;1.10;;;23.10;88.50;;;;;;5060458;28;20203;-70
2022/08/20 03:31:46;;;;;;;2.00;1.30;;;23.00;89.00;;;;;;5043461;28;20216;-70
2022/08/20 03:34:12;;;;;;;1.40;1.30;;;23.00;89.30;;;;;;5049502;28;20288;-70
2022/08/20 03:36:38;;;;;;;1.43;1.33;;;23.00;89.80;;;;;;5052355;28;20247;-70
2022/08/20 03:39:09;;;;;;;1.33;1.23;;;23.00;89.70;;;;;;5051692;28;20227;-71
2022/08/20 03:41:35;;;;;;;1.77;1.67;;;23.00;90.40;;;;;;5078869;28;20816;-70
2022/08/20 03:44:01;;;;;;;1.40;1.30;;;23.00;90.20;;;;;;5069360;28;20449;-70
2022/08/20 03:46:27;;;;;;;1.33;1.23;;;23.00;90.40;;;;;;5069044;28;20719;-70
2022/08/20 03:48:54;;;;;;;1.20;1.10;;;23.00;90.60;;;;;;5071040;28;20674;-70
2022/08/20 03:51:19;;;;;;;1.40;1.30;;;23.00;90.40;;;;;;5069672;28;20449;-69
2022/08/20 03:53:45;;;;;;;1.00;1.00;;;23.00;90.30;;;;;;5076569;28;20460;-70
2022/08/20 03:56:11;;;;;;;4.03;1.23;;;23.00;90.70;;;;;;5069125;28;20222;-70
2022/08/20 03:58:36;;;;;;;0.93;0.90;;;22.90;90.80;;;;;;5064228;28;20297;-70
2022/08/20 04:01:04;;;;;;;1.57;1.47;;;22.90;90.90;;;;;;5069552;28;20562;-70
2022/08/20 04:03:31;;;;;;;1.10;1.10;;;22.90;91.00;;;;;;5069887;28;20226;-70
2022/08/20 04:05:57;;;;;;;1.40;1.30;;;22.90;90.80;;;;;;5069727;28;20869;-70
2022/08/20 04:08:26;;;;;;;1.10;1.10;;;22.90;90.70;;;;;;5069366;28;20501;-70
2022/08/20 04:10:53;;;;;;;1.30;1.20;;;22.90;91.00;;;;;;5067073;28;20465;-70
2022/08/20 04:13:21;;;;;;;1.00;1.00;;;22.90;91.00;;;;;;5068333;27;20515;-70
2022/08/20 04:15:47;;;;;;;1.40;1.20;;;22.90;91.30;;;;;;5072781;28;20963;-70
2022/08/20 04:18:14;;;;;;;1.10;1.00;;;22.90;91.80;;;;;;5070088;28;20514;-69
2022/08/20 04:20:42;;;;;;;1.17;1.00;;;22.90;91.30;;;;;;5072251;28;20456;-70
2022/08/20 04:23:08;;;;;;;1.00;1.00;;;22.90;91.90;;;;;;5068789;28;20457;-69
2022/08/20 04:25:35;;;;;;;1.20;1.20;;;22.90;91.80;;;;;;5067022;28;20479;-68
2022/08/20 04:28:04;;;;;;;1.20;1.10;;;22.80;91.90;;;;;;5049319;28;20461;-71
2022/08/20 04:30:31;;;;;;;1.40;1.30;;;22.90;92.10;;;;;;5064970;28;20971;-70
2022/08/20 04:32:58;;;;;;;1.37;1.27;;;22.80;92.20;;;;;;5063750;28;20465;-70
2022/08/20 04:35:25;;;;;;;1.00;1.00;;;22.80;92.30;;;;;;5073629;28;20466;-70
2022/08/20 04:37:58;;;;;;;0.90;0.90;;;22.80;92.10;;;;;;5067598;28;20453;-69
2022/08/20 04:43:08;;;;;;;1.23;1.13;;;22.90;92.10;;;;;;5081466;28;20460;-69
2022/08/20 04:45:34;;;;;;;1.00;1.00;;;22.80;92.40;;;;;;5066931;28;20449;-70
2022/08/20 04:48:05;;;;;;;1.30;1.10;;;22.80;92.60;;;;;;5067841;28;20232;-69
2022/08/20 04:50:35;;;;;;;1.27;1.17;;;22.80;92.80;;;;;;5053774;28;20268;-70
2022/08/20 04:53:07;;;;;;;1.37;1.27;;;22.80;92.70;;;;;;5071419;28;20457;-70
2022/08/20 04:55:37;;;;;;;1.30;1.20;;;22.80;93.00;;;;;;5069177;28;20445;-69
2022/08/20 04:58:09;;;;;;;1.10;1.00;;;22.80;92.90;;;;;;5066636;28;20457;-70
2022/08/20 05:00:35;;;;;;;1.00;1.00;;;22.80;92.80;;;;;;5063290;28;20455;-70
2022/08/20 05:03:01;;;;;;;1.53;1.40;;;22.80;92.90;;;;;;5072654;28;20451;-70
2022/08/20 05:05:27;;;;;;;1.50;1.40;;;22.80;93.30;;;;;;5049731;28;20489;-69
2022/08/20 05:07:52;;;;;;;1.77;1.10;;;22.70;93.40;;;;;;5043271;28;20217;-69
2022/08/20 05:10:18;;;;;;;2.60;1.40;;;22.70;93.50;;;;;;5063463;27;20262;-70
2022/08/20 05:12:45;;;;;;;2.00;1.30;;;22.70;93.30;;;;;;5049399;28;20661;-69
2022/08/20 05:15:11;;;;;;;1.10;1.10;;;22.70;93.30;;;;;;5072024;27;20225;-70
2022/08/20 05:17:39;;;;;;;1.20;1.10;;;22.70;93.60;;;;;;5083877;28;20449;-70
2022/08/20 05:20:06;;;;;;;1.20;1.10;;;22.70;93.70;;;;;;5064796;28;20464;-70
2022/08/20 05:22:32;;;;;;;1.30;1.20;;;22.80;93.80;;;;;;5044252;28;20472;-70
2022/08/20 05:24:59;;;;;;;2.30;1.37;;;22.70;93.90;;;;;;5049332;28;20464;-69
2022/08/20 05:27:25;;;;;;;1.17;1.13;;;22.70;93.20;;;;;;5076060;28;20697;-70
2022/08/20 05:29:54;;;;;;;1.23;1.13;;;22.70;93.20;;;;;;5072499;28;20492;-70
2022/08/20 05:32:21;;;;;;;0.83;0.83;;;22.80;93.40;;;;;;5071283;28;20301;-69
2022/08/20 05:34:47;;;;;;;1.10;1.10;;;22.80;93.20;;;;;;5068638;28;20455;-70
2022/08/20 05:37:13;;;;;;;0.90;0.90;;;22.80;93.10;;;;;;5071497;28;20441;-70
2022/08/20 05:39:39;;;;;;;2.00;1.80;;;22.80;93.20;;;;;;5058051;28;20536;-70
2022/08/20 05:42:05;;;;;;;1.50;1.40;;;22.80;93.10;;;;;;5089608;27;20536;-69
2022/08/20 05:44:31;;;;;;;1.10;1.07;;;22.90;93.10;;;;;;5053092;28;20226;-70
2022/08/20 05:46:57;;;;;;;1.40;1.30;;;22.90;92.90;;;;;;5075018;28;20697;-70
2022/08/20 05:49:23;;;;;;;1.20;1.10;;;22.90;93.00;;;;;;5055919;28;20219;-70
2022/08/20 05:51:50;;;;;;;1.27;1.20;;;22.90;92.80;;;;;;5072912;28;20210;-70
2022/08/20 05:54:15;;;;;;;1.33;1.07;;;22.90;92.70;;;;;;5067662;28;20223;-69
2022/08/20 05:56:41;;;;;;;1.60;1.50;;;22.90;93.10;;;;;;5054768;28;20536;-69
2022/08/20 05:59:09;;;;;;;1.20;1.03;;;22.90;93.10;;;;;;5055067;27;20214;-70
2022/08/20 06:01:37;;;;;;;2.00;1.30;;;22.90;93.30;;;;;;5067521;28;20214;-70
2022/08/20 06:06:50;;;;;;;1.73;1.63;;;22.90;93.30;;;;;;5072108;28;20468;-70
2022/08/20 06:09:18;;;;;;;1.90;1.80;;;22.90;94.00;;;;;;5069220;28;21063;-69
2022/08/20 06:11:44;;;;;;;2.80;1.80;;;22.80;94.20;;;;;;5064588;28;20453;-69
2022/08/20 06:14:10;;;;;;;4.47;2.47;;;22.80;93.90;;;;;;5070167;28;20929;-69
2022/08/20 06:16:35;;;;;;;3.27;2.50;;;22.80;94.40;;;;;;5074578;28;20214;-70
2022/08/20 06:19:01;;;;;;;2.90;2.60;;;22.80;94.50;;;;;;5088344;27;20214;-69
2022/08/20 06:21:27;;;;;;;2.77;2.57;;;22.80;94.80;;;;;;5071385;28;20219;-70
2022/08/20 06:23:53;;;;;;;2.60;2.40;;;22.80;95.00;;;;;;5056511;28;20218;-70
2022/08/20 06:26:18;;;;;;;2.90;2.70;;;22.80;95.40;;;;;;5067953;27;20214;-70
2022/08/20 06:28:44;;;;;;;2.97;2.70;;;22.80;95.10;;;;;;5071212;28;20210;-69
2022/08/20 06:31:10;;;;;;;3.03;2.83;;;22.80;95.10;;;;;;5070929;28;20210;-70
2022/08/20 06:33:36;;;;;;;3.93;2.90;;;22.80;95.50;;;;;;5051346;28;20218;-70
2022/08/20 06:36:02;;;;;;;3.63;2.93;;;22.80;95.90;;;;;;5070736;28;20209;-70
2022/08/20 06:38:31;;;;;;;2.47;2.30;;;22.80;95.80;;;;;;5074720;28;20952;-69
2022/08/20 06:40:58;;;;;;;4.00;3.10;;;22.80;95.30;;;;;;5069736;28;20461;-69
2022/08/20 06:43:24;;;;;;;2.70;2.50;;;22.80;95.00;;;;;;5074391;28;20453;-69
2022/08/20 06:45:51;;;;;;;3.07;2.40;;;22.80;95.20;;;;;;5072392;28;20456;-70
2022/08/20 06:48:17;;;;;;;3.80;3.07;;;22.80;95.30;;;;;;5089118;27;20453;-69
2022/08/20 06:50:45;;;;;;;3.37;3.00;;;22.80;95.30;;;;;;5067009;28;20461;-70
2022/08/20 06:53:13;;;;;;;3.40;3.10;;;22.80;95.50;;;;;;5085875;28;20571;-70
2022/08/20 06:55:43;;;;;;;3.97;3.37;;;22.80;95.70;;;;;;5072096;28;20453;-70
2022/08/20 06:58:11;;;;;;;3.17;2.87;;;22.80;96.30;;;;;;5081092;28;20477;-69
2022/08/20 07:00:41;;;;;;;6.03;3.77;;;22.80;96.00;;;;;;5086249;28;20537;-70
2022/08/20 07:03:07;;;;;;;3.20;2.90;;;22.80;96.20;;;;;;5048208;28;20470;-70
2022/08/20 07:05:41;;;;;;;3.03;2.80;;;22.80;96.60;;;;;;5052501;28;20441;-70
2022/08/20 07:08:10;;;;;;;3.20;3.00;;;22.80;96.50;;;;;;5071035;28;20446;-70
2022/08/20 07:10:36;;;;;;;2.73;2.53;;;22.90;96.30;;;;;;5084020;28;20453;-70
2022/08/20 07:13:02;;;;;;;3.97;3.60;;;22.90;96.00;;;;;;5072185;28;20461;-71
2022/08/20 07:15:28;;;;;;;3.03;2.70;;;22.90;96.10;;;;;;5068315;27;20510;-69
2022/08/20 07:17:57;;;;;;;2.90;2.70;;;22.90;95.90;;;;;;5077902;28;20753;-70
2022/08/20 07:20:24;;;;;;;8.43;3.40;;;22.90;96.40;;;;;;5048822;27;20218;-68
2022/08/20 07:22:50;;;;;;;3.07;2.60;;;22.90;96.30;;;;;;5069013;28;20464;-70
2022/08/20 07:25:18;;;;;;;3.87;3.13;;;23.00;96.10;;;;;;5070225;27;20465;-69
2022/08/20 07:27:45;;;;;;;3.30;2.57;;;23.00;96.20;;;;;;5075007;28;20575;-69
2022/08/20 07:32:59;;;;;;;2.80;2.60;;;23.00;96.20;;;;;;5065294;28;20470;-69
2022/08/20 07:35:25;;;;;;;3.27;2.87;;;23.00;96.00;;;;;;5068323;28;20548;-70
2022/08/20 07:37:53;;;;;;;3.10;2.80;;;23.00;96.20;;;;;;5080572;27;20242;-69
2022/08/20 07:40:28;;;;;;;2.80;2.60;;;23.00;96.20;;;;;;5062709;28;20481;-69
2022/08/20 07:42:55;;;;;;;2.57;2.37;;;23.00;96.20;;;;;;5068566;28;20488;-70
2022/08/20 07:45:22;;;;;;;3.20;2.50;;;23.10;96.40;;;;;;5066401;28;20452;-70
2022/08/20 07:47:48;;;;;;;5.87;3.13;;;23.10;96.40;;;;;;5069673;28;20661;-69
2022/08/20 07:50:18;;;;;;;2.50;2.30;;;23.10;96.80;;;;;;5051685;28;20472;-69
2022/08/20 07:52:45;;;;;;;2.67;2.47;;;23.10;96.30;;;;;;5051407;28;20472;-70
2022/08/20 07:55:14;;;;;;;2.80;2.60;;;23.20;96.50;;;;;;5074484;28;20466;-69
2022/08/20 07:57:42;;;;;;;3.33;2.70;;;23.20;96.90;;;;;;5072057;28;20461;-70
2022/08/20 08:00:09;;;;;;;2.30;2.10;;;23.20;96.40;;;;;;5048897;27;20453;-69
2022/08/20 08:02:35;;;;;;;2.80;2.60;;;23.30;96.70;;;;;;5068933;28;20453;-69
2022/08/20 08:05:02;;;;;;;2.20;2.10;;;23.30;96.90;;;;;;5073866;28;20991;-70
2022/08/20 08:07:29;;;;;;;2.33;2.10;;;23.40;96.90;;;;;;5067093;28;20456;-69
2022/08/20 08:09:56;;;;;;;2.40;2.30;;;23.40;96.60;;;;;;5066948;28;20511;-70
2022/08/20 08:12:24;;;;;;;3.80;2.90;;;23.40;96.40;;;;;;5073487;28;20564;-69
2022/08/20 08:14:50;;;;;;;2.27;2.17;;;23.50;96.60;;;;;;5068916;28;20461;-70
2022/08/20 08:17:17;;;;;;;2.67;2.47;;;23.60;96.50;;;;;;5076197;28;20453;-69
2022/08/20 08:19:47;;;;;;;2.60;2.40;;;23.60;96.20;;;;;;5069362;28;20449;-69
2022/08/20 08:22:16;;;;;;;3.00;2.80;;;23.60;96.30;;;;;;5068307;27;20447;-70
2022/08/20 08:24:43;;;;;;;2.57;2.37;;;23.70;96.30;;;;;;5070642;28;20449;-70
2022/08/20 08:27:09;;;;;;;4.40;2.50;;;23.80;96.40;;;;;;5052031;27;20972;-70
2022/08/20 08:29:36;;;;;;;2.37;2.20;;;23.90;96.40;;;;;;5047208;28;20450;-70
2022/08/20 08:32:03;;;;;;;1.50;1.40;;;24.00;95.60;;;;;;5068950;28;20525;-70
2022/08/20 08:34:32;;;;;;;2.07;1.97;;;24.00;94.80;;;;;;5067683;28;20433;-70
2022/08/20 08:36:59;;;;;;;1.93;1.73;;;24.00;95.10;;;;;;5064018;28;20498;-70
2022/08/20 08:39:25;;;;;;;2.03;1.93;;;24.10;94.70;;;;;;5050553;28;20511;-69
2022/08/20 08:41:51;;;;;;;1.60;1.50;;;24.20;94.40;;;;;;5066097;28;20963;-70
2022/08/20 08:44:40;;;;;;;1.67;1.57;;;24.20;94.40;;;;;;5067185;27;20210;-69
2022/08/20 08:47:24;;;;;;;1.60;1.50;;;24.40;94.00;;;;;;5071663;28;20536;-70
2022/08/20 08:49:50;;;;;;;1.93;1.47;;;24.40;93.80;;;;;;5050427;28;20457;-70
2022/08/20 08:52:43;;;;;;;1.80;1.70;;;24.40;93.50;;;;;;5075150;27;20471;-70
2022/08/20 08:55:15;;;;;;;1.63;1.53;;;24.40;93.30;;;;;;5082307;28;20306;-70
2022/08/20 08:57:41;;;;;;;1.40;1.30;;;24.40;92.90;;;;;;5082173;27;20992;-70
2022/08/20 09:00:15;;;;;;;1.10;1.10;;;24.50;92.90;;;;;;5067117;28;20480;-69
2022/08/20 09:02:58;;;;;;;2.10;1.93;;;24.50;92.70;;;;;;5047303;28;20215;-70
2022/08/20 09:05:30;;;;;;;1.40;1.30;;;24.60;92.10;;;;;;5048367;27;20453;-69
2022/08/20 09:07:57;;;;;;;1.57;1.47;;;24.50;91.70;;;;;;5067099;27;20541;-70
2022/08/20 09:10:23;;;;;;;1.37;1.27;;;24.60;91.70;;;;;;5061539;27;20471;-69
2022/08/20 09:12:50;;;;;;;1.30;1.20;;;24.50;91.50;;;;;;5077408;28;20474;-70
2022/08/20 09:15:15;;;;;;;1.30;1.30;;;24.60;91.70;;;;;;5051478;28;20219;-69
2022/08/20 09:17:41;;;;;;;1.40;1.30;;;24.50;91.00;;;;;;5070079;28;21002;-70
2022/08/20 09:20:08;;;;;;;1.33;1.33;;;24.60;91.10;;;;;;5057995;28;20754;-70
2022/08/20 09:22:34;;;;;;;1.20;1.20;;;24.60;90.20;;;;;;5052379;28;20214;-70
2022/08/20 09:25:02;;;;;;;2.13;1.40;;;24.60;90.20;;;;;;5069021;27;20461;-70
2022/08/20 09:27:28;;;;;;;1.00;1.00;;;24.70;90.20;;;;;;5064965;27;20218;-70
2022/08/20 09:29:54;;;;;;;0.83;0.83;;;24.70;89.30;;;;;;5067493;28;20469;-70
2022/08/20 09:32:21;;;;;;;1.03;1.00;;;24.70;89.70;;;;;;5068216;28;20471;-70
2022/08/20 09:34:50;;;;;;;1.10;1.10;;;24.80;89.50;;;;;;5089782;27;20214;-70
2022/08/20 09:37:17;;;;;;;1.27;1.17;;;24.90;89.40;;;;;;5073739;27;20448;-68
2022/08/20 09:39:43;;;;;;;0.90;0.90;;;25.00;89.30;;;;;;5067942;28;20453;-70
2022/08/20 09:42:15;;;;;;;1.00;1.00;;;25.10;89.30;;;;;;5062571;28;20536;-70
2022/08/20 09:44:41;;;;;;;1.00;1.00;;;25.10;89.30;;;;;;5065088;28;20231;-70
2022/08/20 09:47:10;;;;;;;1.10;1.10;;;25.30;89.60;;;;;;5069652;28;20470;-69
2022/08/20 09:49:36;;;;;;;1.00;1.00;;;25.30;88.90;;;;;;5069218;28;20478;-70
2022/08/20 09:52:05;;;;;;;2.00;0.80;;;25.40;88.80;;;;;;5065779;28;20976;-70
2022/08/20 09:54:32;;;;;;;0.90;0.90;;;25.50;88.40;;;;;;5065880;28;20220;-69
2022/08/20 09:57:01;;;;;;;0.80;0.80;;;25.50;87.70;;;;;;5051072;28;20449;-69
2022/08/20 09:59:28;;;;;;;0.80;0.80;;;25.50;88.10;;;;;;5067175;28;20460;-69
2022/08/20 10:01:54;;;;;;;0.90;0.90;;;25.60;87.50;;;;;;5067897;28;20450;-69
2022/08/20 10:04:20;;;;;;;1.03;1.03;;;25.70;87.50;;;;;;5070644;27;20457;-69
2022/08/20 10:06:46;;;;;;;0.90;0.90;;;25.80;87.00;;;;;;5065355;28;20214;-70
2022/08/20 10:09:12;;;;;;;0.90;0.90;;;25.80;86.80;;;;;;5086282;27;20287;-69
2022/08/20 10:11:38;;;;;;;0.90;0.90;;;25.90;86.60;;;;;;5063933;28;20237;-69
2022/08/20 10:14:04;;;;;;;0.93;0.93;;;25.90;86.00;;;;;;5067242;28;20967;-69
2022/08/20 10:16:30;;;;;;;1.00;1.00;;;26.00;86.00;;;;;;5064222;28;20268;-70
2022/08/20 10:18:56;;;;;;;1.30;1.20;;;26.10;86.10;;;;;;5066899;28;20314;-70
2022/08/20 10:21:22;;;;;;;0.97;0.97;;;26.20;84.50;;;;;;5068197;27;21003;-70
2022/08/20 10:23:48;;;;;;;1.10;0.83;;;26.10;84.70;;;;;;5087574;28;20468;-70
2022/08/20 10:26:15;;;;;;;1.20;0.90;;;26.10;84.90;;;;;;5068626;28;20227;-69
2022/08/20 10:28:41;;;;;;;0.87;0.87;;;26.20;84.30;;;;;;5087412;28;20447;-70
2022/08/20 10:31:09;;;;;;;0.93;0.80;;;26.30;83.20;;;;;;5070223;28;21012;-70
2022/08/20 10:33:36;;;;;;;0.90;0.90;;;26.40;83.30;;;;;;5068132;28;20479;-69
2022/08/20 10:36:07;;;;;;;1.07;0.90;;;26.30;83.10;;;;;;5069943;28;20490;-70
2022/08/20 10:38:33;;;;;;;0.97;0.97;;;26.50;83.30;;;;;;5065363;28;20975;-69
2022/08/20 10:40:58;;;;;;;1.17;1.00;;;26.60;82.70;;;;;;5045088;28;20457;-70
2022/08/20 10:43:24;;;;;;;0.90;0.90;;;26.70;82.60;;;;;;5067094;28;20606;-70
2022/08/20 10:45:50;;;;;;;0.90;0.90;;;26.80;81.70;;;;;;5070360;28;20243;-70
2022/08/20 10:48:17;;;;;;;3.07;1.10;;;26.90;81.30;;;;;;5065769;28;20303;-69
2022/08/20 10:50:42;;;;;;;1.90;1.10;;;27.00;80.50;;;;;;5070917;28;20452;-70
2022/08/20 10:53:08;;;;;;;1.10;1.10;;;27.00;79.50;;;;;;5067537;27;20828;-70
2022/08/20 10:55:34;;;;;;;1.87;1.20;;;27.10;79.80;;;;;;5052785;28;20295;-69
2022/08/20 10:57:59;;;;;;;2.73;0.90;;;27.10;79.80;;;;;;5068554;28;20223;-70
2022/08/20 11:00:25;;;;;;;0.90;0.90;;;27.20;80.70;;;;;;5059181;27;20238;-69
2022/08/20 11:02:51;;;;;;;0.90;0.90;;;27.30;80.50;;;;;;5083572;28;20217;-70
2022/08/20 11:05:17;;;;;;;0.90;0.90;;;27.60;78.50;;;;;;5068774;28;20238;-69
2022/08/20 11:07:44;;;;;;;0.80;0.80;;;27.70;79.00;;;;;;5066206;28;20238;-70
2022/08/20 11:10:10;;;;;;;0.90;0.90;;;27.80;79.10;;;;;;5067840;27;20270;-70
2022/08/20 11:12:36;;;;;;;1.13;1.10;;;28.00;78.30;;;;;;5060992;28;20553;-70
2022/08/20 11:15:03;;;;;;;1.02;1.02;;;28.00;77.70;;;;;;5068629;28;20283;-70
2022/08/20 11:17:31;;;;;;;1.42;1.13;;;28.00;77.40;;;;;;5069002;28;20233;-70
2022/08/20 11:19:58;;;;;;;1.00;1.00;;;28.00;77.60;;;;;;5066568;28;20217;-70
2022/08/20 11:22:25;;;;;;;1.50;1.00;;;28.00;77.50;;;;;;5065976;28;20583;-69
2022/08/20 11:24:52;;;;;;;0.85;0.85;;;28.10;77.10;;;;;;5063975;28;20227;-70
2022/08/20 11:27:34;;;;;;;1.00;1.00;;;28.20;75.80;;;;;;5067030;28;20229;-69
2022/08/20 11:29:59;;;;;;;1.05;1.05;;;28.30;74.90;;;;;;5037727;28;20229;-70
2022/08/20 11:32:26;;;;;;;0.98;0.90;;;28.30;74.90;;;;;;5063274;27;20599;-69
2022/08/20 11:34:51;;;;;;;2.53;0.90;;;28.30;74.60;;;;;;5068722;28;20406;-70
2022/08/20 11:37:20;;;;;;;2.53;1.10;;;28.40;72.70;;;;;;5068093;28;20760;-69
2022/08/20 11:39:46;;;;;;;0.90;0.90;;;28.40;69.60;;;;;;5066096;28;20731;-70
2022/08/20 11:42:12;;;;;;;1.23;1.13;;;28.50;70.30;;;;;;5062449;27;20217;-71
2022/08/20 11:44:38;;;;;;;1.00;1.00;;;28.50;69.00;;;;;;5067913;28;20222;-70
2022/08/20 11:47:06;;;;;;;1.17;1.08;;;28.50;69.80;;;;;;5068590;28;20209;-69
2022/08/20 11:49:34;;;;;;;1.30;1.20;;;28.60;67.40;;;;;;5051304;28;20211;-70
2022/08/20 11:52:00;;;;;;;1.00;1.00;;;28.70;65.70;;;;;;5065738;28;20213;-70
2022/08/20 11:54:31;;;;;;;1.10;1.10;;;28.80;63.70;;;;;;5065875;28;20269;-70
2022/08/20 11:56:57;;;;;;;1.10;1.10;;;28.80;67.10;;;;;;5060695;28;20305;-70
2022/08/20 11:59:25;;;;;;;1.10;1.10;;;28.90;66.80;;;;;;5067768;28;20238;-70
2022/08/20 12:01:53;;;;;;;1.05;1.05;;;29.10;65.00;;;;;;5080171;28;20219;-70
2022/08/20 12:04:19;;;;;;;1.45;1.35;;;29.20;65.30;;;;;;5084779;28;20230;-70
2022/08/20 12:06:45;;;;;;;1.20;1.20;;;29.30;64.20;;;;;;5066160;28;20234;-70
2022/08/20 12:09:11;;;;;;;1.85;1.75;;;29.30;63.20;;;;;;5067832;28;20239;-70
2022/08/20 12:11:36;;;;;;;1.67;1.55;;;29.30;62.00;;;;;;5083081;28;20229;-70
2022/08/20 12:14:02;;;;;;;2.40;1.50;;;29.30;63.70;;;;;;5048661;28;20347;-70
2022/08/20 12:16:28;;;;;;;1.85;1.75;;;29.50;63.20;;;;;;5067010;28;20261;-70
2022/08/20 12:18:54;;;;;;;2.10;2.00;;;29.70;61.10;;;;;;5064811;28;20710;-70
2022/08/20 12:21:19;;;;;;;1.73;1.63;;;29.80;59.60;;;;;;5049929;28;20228;-70
2022/08/20 12:23:46;;;;;;;1.83;1.73;;;30.00;60.60;;;;;;5047379;28;20235;-70
2022/08/20 12:26:12;;;;;;;2.45;2.25;;;30.10;59.00;;;;;;5062251;28;20732;-70
2022/08/20 12:28:38;;;;;;;1.58;1.48;;;30.10;58.40;;;;;;5069346;28;20248;-70
2022/08/20 12:31:04;;;;;;;1.90;1.80;;;30.20;59.00;;;;;;5086998;28;20297;-70
2022/08/20 12:33:30;;;;;;;1.60;1.50;;;30.40;58.50;;;;;;5048706;27;20294;-70
2022/08/20 12:35:56;;;;;;;1.85;1.75;;;30.40;58.70;;;;;;5065935;28;20256;-70
2022/08/20 12:38:22;;;;;;;1.75;1.65;;;30.60;58.40;;;;;;5069137;28;20252;-70
2022/08/20 12:40:47;;;;;;;1.65;1.55;;;30.60;58.70;;;;;;5041944;28;20256;-70
2022/08/20 12:43:13;;;;;;;1.70;1.60;;;30.50;58.00;;;;;;5047423;28;20218;-71
2022/08/20 12:45:39;;;;;;;1.52;1.42;;;30.50;57.40;;;;;;5070351;28;20649;-70
2022/08/20 12:48:09;;;;;;;1.63;1.52;;;30.60;57.90;;;;;;5066293;28;20219;-71
2022/08/20 12:50:37;;;;;;;4.55;1.52;;;30.40;56.80;;;;;;5066754;28;20231;-70
2022/08/20 12:53:03;;;;;;;1.50;1.40;;;30.40;57.50;;;;;;5041239;28;20224;-70
2022/08/20 12:55:29;;;;;;;1.70;1.60;;;30.50;57.00;;;;;;5076711;28;20226;-70
2022/08/20 12:57:59;;;;;;;1.30;1.30;;;30.70;56.70;;;;;;5048248;28;20211;-70